createdAt,value
2023-01-26T00:01:58.360Z,10.48
2023-01-26T00:04:26.141Z,15.27
2023-01-26T00:10:00.751Z,16.88
2023-01-26T00:17:54.061Z,10.88
2023-01-26T00:20:20.930Z,16.10
2023-01-26T00:22:47.818Z,13.75
2023-01-26T00:25:14.686Z,16.48
2023-01-26T00:30:17.505Z,12.80
2023-01-26T00:32:44.469Z,11.50
2023-01-26T00:35:16.916Z,8.55
2023-01-26T00:40:29.476Z,7.80
2023-01-26T00:43:02.386Z,9.05
2023-01-26T00:45:29.277Z,8.85
2023-01-26T00:47:56.219Z,8.77
2023-01-26T00:50:23.107Z,8.75
2023-01-26T00:52:53.970Z,8.90
2023-01-26T00:55:21.332Z,8.57
2023-01-26T01:00:38.846Z,7.63
2023-01-26T01:05:41.115Z,8.75
2023-01-26T01:08:08.525Z,7.95
2023-01-26T01:10:35.580Z,8.60
2023-01-26T01:13:02.410Z,7.32
2023-01-26T01:15:32.363Z,7.25
2023-01-26T01:17:59.194Z,10.65
2023-01-26T01:20:26.184Z,6.25
2023-01-26T01:22:53.170Z,7.63
2023-01-26T01:25:20.436Z,7.85
2023-01-26T01:30:22.552Z,7.45
2023-01-26T01:32:51.784Z,7.55
2023-01-26T01:35:18.612Z,7.10
2023-01-26T01:37:45.843Z,6.40
2023-01-26T01:43:27.221Z,7.05
2023-01-26T01:45:56.157Z,6.57
2023-01-26T01:48:56.588Z,8.02
2023-01-26T01:51:39.163Z,6.28
2023-01-26T01:54:10.837Z,5.10
2023-01-26T01:56:42.678Z,6.72
2023-01-26T01:59:45.054Z,5.65
2023-01-26T02:02:12.268Z,7.07
2023-01-26T02:04:39.533Z,7.18
2023-01-26T02:07:06.538Z,6.95
2023-01-26T02:12:24.626Z,6.57
2023-01-26T02:14:53.390Z,7.05
2023-01-26T02:17:20.336Z,6.13
2023-01-26T02:19:57.887Z,7.47
2023-01-26T02:22:36.867Z,6.05
2023-01-26T02:25:12.890Z,7.28
2023-01-26T02:27:40.411Z,6.65
2023-01-26T02:30:08.731Z,7.25
2023-01-26T02:32:36.105Z,8.07
2023-01-26T02:35:02.964Z,6.20
2023-01-26T02:37:30.229Z,8.38
2023-01-26T02:40:03.395Z,7.22
2023-01-26T02:42:41.780Z,8.02
2023-01-26T02:45:12.663Z,6.78
2023-01-26T02:47:40.579Z,8.25
2023-01-26T02:50:09.519Z,6.88
2023-01-26T02:52:37.448Z,7.95
2023-01-26T02:55:22.707Z,7.40
2023-01-26T02:57:54.693Z,6.75
2023-01-26T03:00:24.760Z,6.68
2023-01-26T03:02:54.193Z,7.20
2023-01-26T03:05:21.503Z,6.20
2023-01-26T03:07:48.434Z,5.57
2023-01-26T03:10:18.574Z,5.78
2023-01-26T03:12:45.731Z,6.93
2023-01-26T03:15:32.109Z,7.15
2023-01-26T03:18:27.795Z,7.00
2023-01-26T03:21:13.321Z,6.57
2023-01-26T03:23:58.987Z,7.38
2023-01-26T03:26:44.525Z,5.80
2023-01-26T03:29:11.355Z,6.15
2023-01-26T03:31:38.783Z,7.03
2023-01-26T03:34:05.857Z,7.00
2023-01-26T03:36:32.680Z,6.95
2023-01-26T03:38:59.493Z,6.35
2023-01-26T03:41:44.826Z,6.00
2023-01-26T03:44:30.536Z,5.43
2023-01-26T03:47:16.222Z,6.88
2023-01-26T03:50:01.538Z,6.25
2023-01-26T03:52:49.610Z,7.45
2023-01-26T03:55:35.716Z,7.72
2023-01-26T03:58:02.986Z,7.28
2023-01-26T04:00:29.865Z,7.70
2023-01-26T04:03:16.361Z,8.10
2023-01-26T04:06:16.126Z,7.50
2023-01-26T04:08:44.933Z,5.53
2023-01-26T04:11:11.815Z,6.53
2023-01-26T04:13:57.536Z,7.10
2023-01-26T04:16:43.370Z,7.00
2023-01-26T04:19:29.203Z,7.00
2023-01-26T04:21:56.474Z,7.32
2023-01-26T04:24:24.630Z,6.45
2023-01-26T04:26:51.540Z,7.80
2023-01-26T04:29:18.776Z,8.48
2023-01-26T04:31:45.660Z,8.50
2023-01-26T04:34:15.468Z,7.07
2023-01-26T04:36:43.474Z,8.57
2023-01-26T04:39:11.024Z,7.40
2023-01-26T04:41:37.906Z,6.78
2023-01-26T04:44:04.818Z,7.68
2023-01-26T04:46:33.330Z,7.25
2023-01-26T04:49:00.185Z,8.00
2023-01-26T04:51:28.202Z,7.32
2023-01-26T04:56:40.386Z,7.20
2023-01-26T04:59:09.556Z,7.65
2023-01-26T05:01:36.898Z,7.93
2023-01-26T05:04:05.672Z,8.00
2023-01-26T05:06:32.667Z,7.20
2023-01-26T05:08:59.600Z,6.40
2023-01-26T05:11:26.857Z,6.75
2023-01-26T05:13:54.167Z,7.97
2023-01-26T05:16:21.180Z,6.88
2023-01-26T05:18:47.983Z,7.88
2023-01-26T05:21:15.497Z,8.00
2023-01-26T05:23:42.838Z,7.25
2023-01-26T05:26:09.869Z,7.03
2023-01-26T05:28:37.100Z,7.18
2023-01-26T05:31:04.563Z,6.95
2023-01-26T05:33:31.487Z,7.38
2023-01-26T05:35:58.752Z,8.35
2023-01-26T05:38:26.470Z,8.13
2023-01-26T05:40:53.381Z,8.50
2023-01-26T05:43:20.991Z,8.95
2023-01-26T05:45:48.481Z,7.82
2023-01-26T05:48:15.489Z,8.48
2023-01-26T05:50:42.338Z,7.07
2023-01-26T05:53:09.297Z,7.25
2023-01-26T05:55:36.203Z,6.28
2023-01-26T05:58:03.111Z,7.22
2023-01-26T06:00:29.998Z,7.05
2023-01-26T06:02:56.857Z,6.45
2023-01-26T06:05:23.714Z,7.85
2023-01-26T06:07:50.961Z,7.47
2023-01-26T06:10:18.245Z,8.98
2023-01-26T06:12:45.069Z,8.68
2023-01-26T06:15:12.789Z,8.75
2023-01-26T06:17:40.054Z,10.07
2023-01-26T06:20:08.657Z,9.13
2023-01-26T06:22:35.790Z,8.02
2023-01-26T06:25:02.672Z,7.38
2023-01-26T06:27:29.624Z,6.60
2023-01-26T06:29:56.758Z,7.82
2023-01-26T06:32:23.624Z,8.63
2023-01-26T06:34:52.861Z,7.97
2023-01-26T06:37:19.949Z,8.68
2023-01-26T06:39:46.941Z,7.63
2023-01-26T06:42:14.142Z,8.00
2023-01-26T06:44:41.499Z,8.25
2023-01-26T06:47:08.876Z,6.97
2023-01-26T06:49:35.853Z,9.18
2023-01-26T06:52:23.283Z,8.90
2023-01-26T06:54:51.071Z,8.23
2023-01-26T06:57:18.013Z,5.80
2023-01-26T06:59:44.868Z,6.90
2023-01-26T07:02:18.912Z,9.93
2023-01-26T07:04:46.917Z,8.52
2023-01-26T07:07:14.787Z,8.73
2023-01-26T07:09:41.795Z,8.38
2023-01-26T07:12:09.616Z,7.32
2023-01-26T07:14:36.493Z,10.70
2023-01-26T07:17:03.799Z,9.77
2023-01-26T07:19:33.327Z,14.73
2023-01-26T07:22:01.162Z,8.45
2023-01-26T07:24:28.332Z,8.85
2023-01-26T07:26:56.517Z,9.75
2023-01-26T07:29:23.763Z,9.07
2023-01-26T07:31:51.303Z,7.55
2023-01-26T07:34:18.207Z,11.20
2023-01-26T07:36:45.597Z,10.93
2023-01-26T07:39:12.812Z,9.95
2023-01-26T07:41:39.819Z,13.55
2023-01-26T07:44:10.088Z,17.77
2023-01-26T07:46:37.364Z,18.52
2023-01-26T07:49:04.212Z,13.15
2023-01-26T07:51:31.000Z,8.70
2023-01-26T07:53:59.004Z,9.70
2023-01-26T07:56:26.254Z,10.13
2023-01-26T07:58:54.520Z,12.07
2023-01-26T08:01:22.314Z,12.00
2023-01-26T08:03:53.677Z,10.27
2023-01-26T08:06:21.507Z,11.57
2023-01-26T08:08:51.267Z,10.93
2023-01-26T08:11:19.570Z,10.48
2023-01-26T08:13:49.211Z,13.85
2023-01-26T08:16:16.709Z,12.38
2023-01-26T08:18:49.215Z,11.45
2023-01-26T08:21:18.884Z,11.55
2023-01-26T08:23:51.000Z,11.60
2023-01-26T08:26:22.535Z,10.25
2023-01-26T08:28:49.772Z,9.18
2023-01-26T08:31:20.349Z,10.05
2023-01-26T08:33:50.870Z,11.00
2023-01-26T08:36:21.722Z,16.05
2023-01-26T08:38:49.613Z,9.50
2023-01-26T08:41:16.557Z,10.45
2023-01-26T08:43:43.865Z,11.00
2023-01-26T08:46:11.269Z,9.65
2023-01-26T08:48:38.774Z,10.05
2023-01-26T08:51:07.686Z,11.10
2023-01-26T08:53:36.028Z,9.77
2023-01-26T08:56:05.889Z,11.55
2023-01-26T08:58:33.829Z,9.48
2023-01-26T09:01:04.710Z,11.43
2023-01-26T09:03:31.580Z,9.68
2023-01-26T09:06:02.126Z,10.32
2023-01-26T09:08:28.936Z,9.93
2023-01-26T09:10:55.718Z,10.40
2023-01-26T09:13:22.642Z,9.98
2023-01-26T09:15:49.893Z,8.98
2023-01-26T09:18:18.133Z,10.32
2023-01-26T09:20:45.138Z,11.68
2023-01-26T09:23:12.759Z,12.52
2023-01-26T09:25:40.273Z,11.95
2023-01-26T09:28:07.525Z,11.07
2023-01-26T09:30:34.579Z,12.85
2023-01-26T09:33:03.284Z,13.02
2023-01-26T09:35:30.879Z,12.32
2023-01-26T09:37:58.207Z,10.77
2023-01-26T09:40:27.862Z,15.77
2023-01-26T09:42:59.704Z,14.75
2023-01-26T09:45:52.185Z,13.00
2023-01-26T09:48:43.990Z,12.40
2023-01-26T09:51:32.119Z,11.60
2023-01-26T09:54:13.219Z,11.38
2023-01-26T09:56:40.560Z,11.43
2023-01-26T09:59:36.768Z,10.95
2023-01-26T10:02:03.585Z,12.75
2023-01-26T10:04:32.849Z,13.57
2023-01-26T10:07:05.138Z,25.15
2023-01-26T10:09:36.983Z,13.43
2023-01-26T10:12:31.583Z,12.20
2023-01-26T10:14:58.843Z,10.55
2023-01-26T10:17:32.012Z,9.98
2023-01-26T10:20:20.578Z,9.45
2023-01-26T10:22:57.870Z,8.32
2023-01-26T10:25:36.991Z,8.93
2023-01-26T10:28:22.251Z,9.38
2023-01-26T10:30:51.484Z,8.35
2023-01-26T10:33:25.225Z,7.80
2023-01-26T10:35:52.123Z,10.23
2023-01-26T10:38:42.517Z,8.45
2023-01-26T10:41:14.879Z,7.43
2023-01-26T10:43:43.387Z,6.90
2023-01-26T10:46:33.883Z,7.72
2023-01-26T10:49:04.477Z,8.80
2023-01-26T10:51:33.732Z,7.32
2023-01-26T10:54:20.648Z,7.55
2023-01-26T10:57:02.350Z,11.30
2023-01-26T10:59:39.297Z,8.60
2023-01-26T11:02:11.952Z,6.60
2023-01-26T11:04:39.930Z,6.85
2023-01-26T11:07:27.744Z,7.13
2023-01-26T11:09:55.433Z,8.60
2023-01-26T11:12:25.485Z,8.20
2023-01-26T11:15:06.451Z,8.27
2023-01-26T11:17:59.846Z,7.07
2023-01-26T11:20:41.656Z,6.95
2023-01-26T11:23:26.246Z,5.97
2023-01-26T11:26:24.340Z,8.27
2023-01-26T11:29:13.371Z,8.23
2023-01-26T11:32:13.519Z,7.50
2023-01-26T11:35:25.939Z,8.05
2023-01-26T11:38:20.684Z,9.75
2023-01-26T11:41:20.688Z,8.98
2023-01-26T11:44:30.380Z,7.65
2023-01-26T11:47:17.154Z,8.23
2023-01-26T11:50:08.531Z,7.82
2023-01-26T11:53:14.269Z,7.90
2023-01-26T11:55:44.089Z,9.18
2023-01-26T11:58:19.468Z,9.38
2023-01-26T12:00:58.041Z,10.82
2023-01-26T12:03:35.471Z,10.20
2023-01-26T12:06:28.937Z,9.80
2023-01-26T12:09:04.786Z,10.13
2023-01-26T12:11:39.719Z,10.73
2023-01-26T12:14:24.260Z,9.05
2023-01-26T12:17:23.534Z,9.90
2023-01-26T12:20:12.292Z,9.10
2023-01-26T12:22:42.869Z,8.70
2023-01-26T12:25:28.758Z,9.90
2023-01-26T12:28:18.406Z,12.20
2023-01-26T12:31:01.303Z,10.70
2023-01-26T12:33:29.021Z,11.10
2023-01-26T12:36:01.871Z,10.77
2023-01-26T12:38:40.594Z,10.48
2023-01-26T12:41:33.462Z,11.63
2023-01-26T12:44:09.964Z,10.35
2023-01-26T12:46:44.445Z,13.55
2023-01-26T12:49:14.984Z,12.15
2023-01-26T12:51:53.910Z,9.55
2023-01-26T12:54:50.655Z,10.10
2023-01-26T12:57:26.156Z,9.40
2023-01-26T12:59:53.845Z,11.98
2023-01-26T13:02:29.488Z,11.32
2023-01-26T13:05:01.900Z,10.55
2023-01-26T13:07:39.080Z,9.77
2023-01-26T13:10:16.221Z,11.50
2023-01-26T13:12:57.523Z,13.57
2023-01-26T13:15:32.197Z,8.75
2023-01-26T13:18:00.623Z,10.20
2023-01-26T13:20:49.673Z,11.20
2023-01-26T13:23:40.552Z,10.93
2023-01-26T13:26:23.590Z,11.73
2023-01-26T13:29:17.192Z,13.38
2023-01-26T13:31:44.475Z,10.40
2023-01-26T13:34:15.102Z,14.30
2023-01-26T13:36:45.512Z,13.18
2023-01-26T13:39:28.851Z,12.35
2023-01-26T13:41:55.730Z,13.48
2023-01-26T13:44:38.428Z,16.00
2023-01-26T13:47:37.699Z,14.35
2023-01-26T13:50:23.353Z,11.98
2023-01-26T13:52:50.816Z,13.32
2023-01-26T13:55:26.672Z,13.88
2023-01-26T13:58:13.332Z,14.10
2023-01-26T14:00:40.446Z,12.77
2023-01-26T14:03:22.353Z,14.23
2023-01-26T14:06:02.516Z,12.55
2023-01-26T14:08:31.109Z,11.63
2023-01-26T14:10:59.514Z,9.27
2023-01-26T14:13:34.129Z,11.13
2023-01-26T14:16:04.952Z,9.45
2023-01-26T14:18:32.552Z,12.02
2023-01-26T14:21:05.519Z,11.68
2023-01-26T14:23:36.878Z,10.52
2023-01-26T14:26:19.487Z,12.32
2023-01-26T14:28:47.348Z,12.60
2023-01-26T14:31:23.789Z,12.00
2023-01-26T14:33:55.998Z,14.23
2023-01-26T14:36:23.260Z,13.35
2023-01-26T14:38:52.469Z,10.93
2023-01-26T14:41:31.833Z,12.40
2023-01-26T14:44:06.007Z,13.75
2023-01-26T14:46:46.385Z,14.05
2023-01-26T14:49:19.725Z,10.45
2023-01-26T14:51:52.833Z,9.85
2023-01-26T14:54:30.980Z,11.27
2023-01-26T14:57:00.033Z,10.40
2023-01-26T14:59:38.604Z,8.75
2023-01-26T15:02:20.522Z,9.60
2023-01-26T15:04:59.402Z,8.23
2023-01-26T15:07:45.067Z,8.93
2023-01-26T15:10:28.016Z,8.90
2023-01-26T15:13:01.191Z,8.88
2023-01-26T15:15:31.299Z,8.25
2023-01-26T15:18:13.890Z,7.32
2023-01-26T15:21:00.538Z,6.88
2023-01-26T15:23:34.609Z,10.27
2023-01-26T15:26:09.223Z,9.52
2023-01-26T15:28:37.412Z,7.20
2023-01-26T15:31:04.740Z,9.32
2023-01-26T15:33:41.619Z,8.60
2023-01-26T15:36:25.395Z,7.43
2023-01-26T15:39:13.617Z,8.98
2023-01-26T15:42:04.053Z,8.88
2023-01-26T15:44:30.907Z,8.23
2023-01-26T15:46:59.337Z,8.75
2023-01-26T15:49:26.332Z,8.93
2023-01-26T15:51:54.150Z,12.38
2023-01-26T15:54:21.127Z,8.38
2023-01-26T15:56:47.999Z,10.25
2023-01-26T15:59:15.231Z,9.50
2023-01-26T16:01:42.268Z,8.70
2023-01-26T16:04:13.821Z,10.15
2023-01-26T16:06:40.666Z,11.38
2023-01-26T16:09:07.472Z,10.98
2023-01-26T16:11:37.658Z,8.82
2023-01-26T16:14:04.941Z,12.38
2023-01-26T16:16:32.883Z,8.30
2023-01-26T16:18:59.825Z,10.57
2023-01-26T16:21:31.399Z,10.43
2023-01-26T16:23:58.909Z,9.43
2023-01-26T16:26:27.395Z,8.32
2023-01-26T16:28:54.680Z,7.90
2023-01-26T16:31:31.868Z,7.35
2023-01-26T16:34:01.687Z,8.80
2023-01-26T16:36:28.671Z,9.48
2023-01-26T16:38:55.654Z,12.30
2023-01-26T16:41:31.597Z,13.32
2023-01-26T16:44:00.965Z,13.63
2023-01-26T16:46:29.559Z,14.07
2023-01-26T16:48:56.887Z,15.10
2023-01-26T16:51:27.663Z,13.38
2023-01-26T16:53:55.504Z,15.13
2023-01-26T16:56:23.531Z,13.82
2023-01-26T16:58:51.307Z,10.52
2023-01-26T17:01:24.341Z,12.45
2023-01-26T17:03:52.117Z,12.57
2023-01-26T17:06:20.448Z,11.65
2023-01-26T17:08:48.655Z,13.52
2023-01-26T17:11:28.414Z,12.90
2023-01-26T17:13:57.240Z,12.25
2023-01-26T17:16:26.021Z,10.18
2023-01-26T17:18:53.116Z,12.10
2023-01-26T17:21:20.577Z,10.77
2023-01-26T17:23:56.001Z,11.07
2023-01-26T17:26:23.791Z,11.45
2023-01-26T17:28:54.543Z,10.35
2023-01-26T17:31:25.675Z,12.43
2023-01-26T17:33:54.663Z,11.63
2023-01-26T17:36:21.774Z,14.30
2023-01-26T17:38:49.507Z,10.07
2023-01-26T17:41:18.047Z,9.65
2023-01-26T17:43:46.285Z,13.38
2023-01-26T17:46:19.216Z,11.80
2023-01-26T17:48:51.599Z,15.68
2023-01-26T17:51:21.001Z,14.63
2023-01-26T17:53:53.674Z,14.85
2023-01-26T17:56:21.830Z,13.75
2023-01-26T17:58:51.597Z,12.57
2023-01-26T18:01:19.991Z,11.82
2023-01-26T18:03:47.322Z,11.90
2023-01-26T18:06:14.797Z,12.15
2023-01-26T18:08:42.133Z,15.02
2023-01-26T18:11:14.776Z,14.90
2023-01-26T18:13:42.238Z,10.05
2023-01-26T18:16:12.520Z,11.52
2023-01-26T18:18:39.337Z,13.30
2023-01-26T18:21:18.737Z,15.93
2023-01-26T18:23:59.115Z,14.75
2023-01-26T18:26:29.395Z,13.77
2023-01-26T18:28:56.875Z,13.20
2023-01-26T18:31:28.088Z,12.55
2023-01-26T18:34:00.100Z,14.27
2023-01-26T18:36:27.826Z,13.05
2023-01-26T18:38:58.059Z,14.40
2023-01-26T18:41:26.797Z,12.13
2023-01-26T18:43:57.729Z,10.18
2023-01-26T18:46:26.043Z,10.75
2023-01-26T18:48:54.031Z,8.95
2023-01-26T18:51:22.707Z,9.65
2023-01-26T18:53:50.086Z,11.88
2023-01-26T18:56:17.261Z,9.63
2023-01-26T18:58:45.981Z,9.15
2023-01-26T19:01:15.488Z,10.55
2023-01-26T19:03:54.945Z,8.77
2023-01-26T19:06:24.184Z,10.90
2023-01-26T19:09:01.303Z,22.95
2023-01-26T19:11:30.854Z,13.48
2023-01-26T19:13:58.387Z,11.07
2023-01-26T19:16:26.206Z,10.43
2023-01-26T19:18:55.395Z,12.60
2023-01-26T19:21:24.774Z,13.07
2023-01-26T19:23:54.073Z,15.55
2023-01-26T19:26:27.912Z,15.32
2023-01-26T19:28:55.364Z,14.07
2023-01-26T19:31:23.400Z,13.25
2023-01-26T19:33:54.258Z,11.40
2023-01-26T19:36:21.893Z,12.70
2023-01-26T19:38:49.022Z,15.95
2023-01-26T19:41:16.434Z,14.23
2023-01-26T19:43:44.348Z,17.92
2023-01-26T19:46:15.405Z,14.27
2023-01-26T19:48:42.521Z,23.20
2023-01-26T19:51:13.930Z,21.83
2023-01-26T19:53:43.336Z,12.85
2023-01-26T19:56:16.381Z,15.25
2023-01-26T19:58:44.056Z,15.07
2023-01-26T20:01:12.579Z,11.25
2023-01-26T20:03:40.110Z,10.15
2023-01-26T20:06:15.053Z,7.28
2023-01-26T20:08:43.012Z,9.07
2023-01-26T20:11:10.968Z,12.93
2023-01-26T20:13:38.162Z,10.05
2023-01-26T20:16:08.796Z,9.15
2023-01-26T20:18:36.345Z,8.13
2023-01-26T20:21:03.696Z,10.65
2023-01-26T20:23:30.665Z,8.90
2023-01-26T20:26:11.189Z,10.57
2023-01-26T20:28:40.209Z,9.65
2023-01-26T20:31:24.913Z,8.68
2023-01-26T20:33:53.491Z,9.48
2023-01-26T20:36:23.927Z,9.45
2023-01-26T20:38:51.566Z,9.85
2023-01-26T20:41:22.146Z,9.38
2023-01-26T20:43:59.364Z,9.48
2023-01-26T20:46:39.436Z,9.02
2023-01-26T20:49:08.686Z,10.35
2023-01-26T20:51:36.370Z,9.27
2023-01-26T20:54:06.526Z,10.60
2023-01-26T20:56:35.058Z,11.02
2023-01-26T20:59:08.334Z,11.32
2023-01-26T21:01:38.056Z,10.52
2023-01-26T21:04:07.939Z,10.32
2023-01-26T21:06:35.663Z,9.70
2023-01-26T21:09:02.562Z,9.65
2023-01-26T21:11:31.308Z,9.02
2023-01-26T21:14:02.953Z,10.68
2023-01-26T21:16:32.489Z,10.27
2023-01-26T21:19:00.028Z,9.57
2023-01-26T21:21:27.399Z,10.13
2023-01-26T21:23:54.280Z,10.15
2023-01-26T21:26:23.657Z,9.38
2023-01-26T21:28:52.706Z,19.60
2023-01-26T21:31:21.416Z,10.15
2023-01-26T21:33:52.847Z,7.28
2023-01-26T21:36:22.764Z,7.28
2023-01-26T21:38:52.340Z,6.28
2023-01-26T21:41:47.277Z,7.72
2023-01-26T21:44:16.582Z,8.93
2023-01-26T21:46:49.655Z,7.20
2023-01-26T21:49:18.948Z,8.55
2023-01-26T21:52:04.341Z,9.52
2023-01-26T21:54:32.188Z,7.90
2023-01-26T21:57:00.726Z,6.35
2023-01-26T21:59:28.932Z,7.75
2023-01-26T22:01:57.427Z,6.82
2023-01-26T22:04:30.305Z,7.75
2023-01-26T22:06:57.946Z,6.65
2023-01-26T22:09:25.623Z,6.43
2023-01-26T22:11:52.840Z,6.43
2023-01-26T22:14:22.878Z,6.88
2023-01-26T22:16:50.345Z,7.38
2023-01-26T22:19:23.225Z,5.93
2023-01-26T22:21:50.093Z,6.90
2023-01-26T22:24:18.176Z,6.75
2023-01-26T22:26:45.576Z,7.78
2023-01-26T22:29:16.056Z,7.07
2023-01-26T22:31:43.218Z,6.53
2023-01-26T22:34:13.215Z,7.60
2023-01-26T22:36:43.624Z,6.40
2023-01-26T22:39:12.261Z,5.70
2023-01-26T22:41:42.139Z,5.57
2023-01-26T22:44:09.122Z,7.53
2023-01-26T22:46:36.869Z,8.15
2023-01-26T22:49:07.353Z,8.02
2023-01-26T22:51:38.443Z,7.28
2023-01-26T22:54:05.709Z,7.78
2023-01-26T22:56:32.593Z,8.90
2023-01-26T22:59:00.799Z,8.65
2023-01-26T23:01:30.120Z,8.68
2023-01-26T23:03:57.787Z,9.07
2023-01-26T23:06:24.919Z,9.40
2023-01-26T23:08:51.882Z,9.27
2023-01-26T23:11:20.078Z,9.27
2023-01-26T23:13:48.444Z,8.95
2023-01-26T23:16:15.468Z,9.02
2023-01-26T23:18:42.892Z,9.10
2023-01-26T23:21:10.412Z,8.30
2023-01-26T23:23:39.971Z,7.90
2023-01-26T23:26:11.024Z,8.43
2023-01-26T23:28:40.937Z,7.75
2023-01-26T23:31:08.659Z,7.75
2023-01-26T23:33:36.502Z,8.65
2023-01-26T23:36:04.795Z,9.38
2023-01-26T23:38:31.706Z,9.77
2023-01-26T23:41:00.375Z,6.68
2023-01-26T23:43:28.294Z,7.32
2023-01-26T23:45:59.039Z,7.40
2023-01-26T23:48:26.434Z,7.53
2023-01-26T23:51:02.830Z,7.60
2023-01-26T23:53:30.781Z,7.97
2023-01-26T23:56:06.497Z,8.30
2023-01-26T23:58:33.466Z,8.25
